Time;durP1;ratioP1;P1;durP2;ratioP2;P2;SDS_P1;SDS_P2;PMS_P1;PMS_P2;Temp;Humidity;BMP_temperature;BMP_pressure;BME280_temperature;BME280_humidity;BME280_pressure;Samples;Min_cycle;Max_cycle;Signal;HPM_P1;HPM_P2
2021/09/22 00:00:28;;;;;;;;;;;;;;;22.55;45.86;96759.66;1048579;28;1240;-57
2021/09/22 00:00:59;;;;;;;;;;;;;;;22.55;45.46;96759.66;1048807;28;1062;-57
2021/09/22 00:01:29;;;;;;;;;;;;;;;22.56;45.52;96759.41;1047288;28;1719;-54
2021/09/22 00:01:59;;;;;;;;;;;;;;;22.56;45.76;96767.34;1048110;28;1909;-59
2021/09/22 00:02:30;;;;;;;;;;;;;;;22.54;45.15;96761.53;1040970;28;2033;-57
2021/09/22 00:03:00;;;;;;;;;;;;;;;22.54;45.54;96764.16;1046133;28;2126;-57
2021/09/22 00:03:30;;;;;;;;;;;;;;;22.53;45.59;96762.56;1048069;28;1567;-58
2021/09/22 00:04:01;;;;;;;;;;;;;;;22.52;45.87;96758.31;1048443;28;1051;-58
2021/09/22 00:04:31;;;;;;;;;;;;;;;22.53;45.75;96754.66;1048341;28;842;-56
2021/09/22 00:05:02;;;;;;;;;;;;;;;22.53;45.60;96754.66;1048446;28;1164;-55
2021/09/22 00:05:32;;;;;;;;;;;;;;;22.53;45.55;96754.66;1046502;28;2158;-54
2021/09/22 00:06:02;;;;;;;;;;;;;;;22.53;45.38;96749.34;1047405;28;1331;-57
2021/09/22 00:06:32;;;;;;;;;;;;;;;22.53;45.20;96748.56;1048632;28;1593;-58
2021/09/22 00:07:03;;;;;;;;;;;;;;;22.52;45.77;96755.69;1048318;28;1465;-58
2021/09/22 00:07:33;;;;;;;;;;;;;;;22.53;45.73;96759.94;1048536;28;1569;-56
2021/09/22 00:08:04;;;;;;;;;;;;;;;22.52;45.64;96758.31;1048461;28;1461;-56
2021/09/22 00:08:34;;;;;;;;;;;;;;;22.53;45.55;96757.28;1048794;28;1217;-55
2021/09/22 00:09:04;;;;;;;;;;;;;;;22.52;45.05;96755.69;1056251;28;1144;-58
2021/09/22 00:09:34;;;;;;;;;;;;;;;22.52;45.25;96753.03;1056568;28;1715;-56
2021/09/22 00:10:05;;;;;;;;;;;;;;;22.52;45.55;96757.56;1056662;28;1159;-57
2021/09/22 00:10:35;;;;;;;;;;;;;;;22.51;45.56;96756.75;1050964;28;2180;-54
2021/09/22 00:11:06;;;;;;;;;;;;;;;22.51;45.38;96755.94;1047693;28;1013;-55
2021/09/22 00:11:36;;;;;;;;;;;;;;;22.51;45.81;96755.94;1048505;28;1066;-57
2021/09/22 00:12:06;;;;;;;;;;;;;;;22.51;45.57;96750.66;1043521;28;1551;-54
2021/09/22 00:12:37;;;;;;;;;;;;;;;22.51;45.64;96753.31;1048044;28;1094;-58
2021/09/22 00:13:07;;;;;;;;;;;;;;;22.51;45.41;96761.25;1047955;28;1084;-57
2021/09/22 00:13:37;;;;;;;;;;;;;;;22.50;45.56;96757.78;1048536;28;1092;-58
2021/09/22 00:14:08;;;;;;;;;;;;;;;22.50;45.50;96752.50;1048558;28;1188;-58
2021/09/22 00:14:38;;;;;;;;;;;;;;;22.50;45.64;96757.78;1056535;28;1514;-58
2021/09/22 00:15:09;;;;;;;;;;;;;;;22.50;45.27;96757.03;1056473;28;1119;-57
2021/09/22 00:15:40;;;;;;;;;;;;;;;22.50;45.65;96757.78;1055246;28;2322;-57
2021/09/22 00:16:10;;;;;;;;;;;;;;;22.49;45.44;96753.59;1053933;28;1127;-57
2021/09/22 00:16:40;;;;;;;;;;;;;;;22.49;45.56;96753.59;1048796;28;1127;-58
2021/09/22 00:17:11;;;;;;;;;;;;;;;22.49;45.63;96758.06;1048539;28;1180;-56
2021/09/22 00:17:41;;;;;;;;;;;;;;;22.49;45.50;96753.59;1044927;28;1367;-57
2021/09/22 00:18:12;;;;;;;;;;;;;;;22.49;45.19;96753.59;1048561;28;1915;-57
2021/09/22 00:18:42;;;;;;;;;;;;;;;22.50;45.28;96754.38;1048745;28;1039;-57
2021/09/22 00:19:12;;;;;;;;;;;;;;;22.50;45.39;96744.59;1048386;28;1378;-56
2021/09/22 00:19:43;;;;;;;;;;;;;;;22.50;45.68;96757.78;1048709;28;1075;-56
2021/09/22 00:20:13;;;;;;;;;;;;;;;22.49;45.50;96753.59;1048641;28;1063;-57
2021/09/22 00:20:44;;;;;;;;;;;;;;;22.49;45.37;96748.28;1047390;28;2117;-56
2021/09/22 00:21:14;;;;;;;;;;;;;;;22.49;45.36;96752.78;1046995;28;1514;-57
2021/09/22 00:21:44;;;;;;;;;;;;;;;22.49;45.50;96752.78;1045922;28;1123;-57
2021/09/22 00:22:14;;;;;;;;;;;;;;;22.49;45.55;96740.38;1048596;28;1150;-56
2021/09/22 00:22:45;;;;;;;;;;;;;;;22.50;45.21;96746.47;1048367;28;1081;-54
2021/09/22 00:23:15;;;;;;;;;;;;;;;22.48;44.87;96746.69;1048587;28;991;-56
2021/09/22 00:23:45;;;;;;;;;;;;;;;22.49;45.50;96750.13;1047160;28;1930;-57
2021/09/22 00:24:16;;;;;;;;;;;;;;;22.48;45.57;96738.78;1048181;28;1103;-56
2021/09/22 00:24:46;;;;;;;;;;;;;;;22.49;45.75;96748.28;1047447;28;2360;-58
2021/09/22 00:25:16;;;;;;;;;;;;;;;22.47;45.55;96745.13;1048068;28;1080;-58
2021/09/22 00:25:47;;;;;;;;;;;;;;;22.48;45.37;96746.69;1047258;28;2477;-54
2021/09/22 00:26:17;;;;;;;;;;;;;;;22.47;45.44;96737.19;1048803;28;1047;-52
2021/09/22 00:26:47;;;;;;;;;;;;;;;22.48;45.36;96741.41;1048294;28;1068;-57
2021/09/22 00:27:18;;;;;;;;;;;;;;;22.48;45.39;96740.63;1048281;28;1198;-55
2021/09/22 00:27:48;;;;;;;;;;;;;;;22.47;45.29;96739.84;1047846;28;1099;-58
2021/09/22 00:28:19;;;;;;;;;;;;;;;22.48;45.62;96745.94;1047962;28;1422;-55
2021/09/22 00:28:49;;;;;;;;;;;;;;;22.47;45.44;96750.41;1048541;28;1386;-56
2021/09/22 00:29:19;;;;;;;;;;;;;;;22.47;45.74;96747.75;1048673;28;1111;-57
2021/09/22 00:29:50;;;;;;;;;;;;;;;22.47;45.52;96746.97;1048237;28;1189;-55
2021/09/22 00:30:20;;;;;;;;;;;;;;;22.47;45.33;96745.13;1048735;28;1134;-55
2021/09/22 00:30:50;;;;;;;;;;;;;;;22.46;45.63;96748.81;1047305;28;2128;-58
2021/09/22 00:31:21;;;;;;;;;;;;;;;22.46;45.39;96759.38;1048679;28;1134;-55
2021/09/22 00:31:51;;;;;;;;;;;;;;;22.46;45.54;96751.44;1048384;28;1031;-56
2021/09/22 00:32:22;;;;;;;;;;;;;;;22.47;45.67;96755.69;1047679;28;1579;-57
2021/09/22 00:32:52;;;;;;;;;;;;;;;22.46;45.54;96756.72;1047056;28;1000;-57
2021/09/22 00:33:23;;;;;;;;;;;;;;;22.47;45.29;96760.97;1048383;28;1137;-57
2021/09/22 00:33:53;;;;;;;;;;;;;;;22.46;45.43;96756.72;1048377;28;1080;-56
2021/09/22 00:34:23;;;;;;;;;;;;;;;22.46;45.34;96756.72;1048436;28;1150;-55
2021/09/22 00:34:54;;;;;;;;;;;;;;;22.46;45.42;96756.72;1048665;28;1158;-56
2021/09/22 00:35:24;;;;;;;;;;;;;;;22.45;45.47;96757.81;1048615;28;1170;-54
2021/09/22 00:35:54;;;;;;;;;;;;;;;22.46;45.15;96758.59;1046956;28;2189;-55
2021/09/22 00:36:25;;;;;;;;;;;;;;;22.45;45.47;96757.81;1048554;28;1087;-58
2021/09/22 00:36:55;;;;;;;;;;;;;;;22.45;45.64;96757.00;1048744;28;1110;-57
2021/09/22 00:37:25;;;;;;;;;;;;;;;22.45;45.68;96757.81;1048444;28;1154;-55
2021/09/22 00:37:56;;;;;;;;;;;;;;;22.45;45.38;96762.28;1047672;28;1963;-55
2021/09/22 00:38:26;;;;;;;;;;;;;;;22.43;45.65;96759.91;1048197;28;1217;-53
2021/09/22 00:38:56;;;;;;;;;;;;;;;22.45;45.40;96755.16;1047938;28;1347;-56
2021/09/22 00:39:27;;;;;;;;;;;;;;;22.45;45.42;96762.28;1048374;28;1175;-57
2021/09/22 00:39:58;;;;;;;;;;;;;;;22.45;45.63;96759.63;1049145;28;1047;-54
2021/09/22 00:40:28;;;;;;;;;;;;;;;22.44;45.64;96756.19;1049540;28;791;-56
2021/09/22 00:40:59;;;;;;;;;;;;;;;22.44;45.19;96758.06;1047816;28;1997;-52
2021/09/22 00:41:29;;;;;;;;;;;;;;;22.44;45.57;96758.84;1049511;28;992;-56
2021/09/22 00:41:59;;;;;;;;;;;;;;;22.44;45.30;96755.44;1047093;28;1506;-57
2021/09/22 00:42:30;;;;;;;;;;;;;;;22.43;45.54;96757.28;1049161;28;1391;-57
2021/09/22 00:43:00;;;;;;;;;;;;;;;22.43;45.60;96754.63;1049008;28;1057;-58
2021/09/22 00:43:30;;;;;;;;;;;;;;;22.43;45.79;96756.47;1049543;28;788;-56
2021/09/22 00:44:01;;;;;;;;;;;;;;;22.43;45.69;96751.97;1049134;28;1048;-57
2021/09/22 00:44:31;;;;;;;;;;;;;;;22.43;45.76;96745.91;1049280;28;846;-57
2021/09/22 00:45:03;;;;;;;;;;;;;;;22.43;45.27;96753.81;1049100;28;1184;-57
2021/09/22 00:45:34;;;;;;;;;;;;;;;22.42;45.35;96750.38;1049320;28;2057;-57
2021/09/22 00:46:04;;;;;;;;;;;;;;;22.43;45.52;96751.19;1048240;28;2607;-58
2021/09/22 00:46:35;;;;;;;;;;;;;;;22.42;45.24;96742.47;1049286;28;1050;-58
2021/09/22 00:47:05;;;;;;;;;;;;;;;22.42;45.28;96753.03;1049354;28;1130;-56
2021/09/22 00:47:35;;;;;;;;;;;;;;;22.43;45.24;96741.41;1048467;28;1046;-57
2021/09/22 00:48:06;;;;;;;;;;;;;;;22.42;45.47;96747.75;1048623;28;1331;-57
2021/09/22 00:48:36;;;;;;;;;;;;;;;22.41;45.34;96746.16;1048967;28;1054;-58
2021/09/22 00:49:06;;;;;;;;;;;;;;;22.42;45.59;96750.38;1048695;28;1288;-58
2021/09/22 00:49:37;;;;;;;;;;;;;;;22.42;45.40;96736.41;1048212;28;1844;-57
2021/09/22 00:50:07;;;;;;;;;;;;;;;22.41;45.67;96746.16;1048959;28;1129;-54
2021/09/22 00:50:37;;;;;;;;;;;;;;;22.41;44.97;96740.88;1048372;28;2056;-58
2021/09/22 00:51:08;;;;;;;;;;;;;;;22.42;45.49;96742.47;1048639;28;1520;-56
2021/09/22 00:51:38;;;;;;;;;;;;;;;22.42;45.43;96741.69;1049101;28;1736;-57
2021/09/22 00:52:11;;;;;;;;;;;;;;;22.41;45.39;96740.88;1048914;28;989;-56
2021/09/22 00:52:41;;;;;;;;;;;;;;;22.41;45.40;96740.09;1044392;28;1103;-55
2021/09/22 00:53:12;;;;;;;;;;;;;;;22.40;45.68;96739.28;1045276;28;1056;-56
2021/09/22 00:53:42;;;;;;;;;;;;;;;22.40;45.50;96736.63;1044876;28;1359;-56
2021/09/22 00:54:12;;;;;;;;;;;;;;;22.41;45.39;96740.88;1044856;28;1131;-56
2021/09/22 00:54:43;;;;;;;;;;;;;;;22.40;45.56;96736.63;1044504;28;1117;-58
2021/09/22 00:55:13;;;;;;;;;;;;;;;22.40;45.39;96741.94;1044718;28;1463;-52
2021/09/22 00:55:44;;;;;;;;;;;;;;;22.38;45.58;96736.09;1044049;28;2183;-57
2021/09/22 00:56:14;;;;;;;;;;;;;;;22.40;45.05;96736.63;1044740;28;1790;-58
2021/09/22 00:56:45;;;;;;;;;;;;;;;22.40;45.31;96734.00;1043978;28;2078;-56
2021/09/22 00:57:18;;;;;;;;;;;;;;;22.40;45.21;96738.50;1040625;28;1606;-54
2021/09/22 00:57:49;;;;;;;;;;;;;;;22.40;45.18;96741.16;1044680;28;1910;-56
2021/09/22 00:58:19;;;;;;;;;;;;;;;22.40;45.12;96739.28;1044277;28;1136;-56
2021/09/22 00:58:50;;;;;;;;;;;;;;;22.40;45.21;96743.78;1047154;28;1697;-57
2021/09/22 00:59:20;;;;;;;;;;;;;;;22.39;45.05;96736.91;1047849;28;1287;-56
2021/09/22 00:59:51;;;;;;;;;;;;;;;22.39;45.27;96740.34;1048767;28;1461;-55
2021/09/22 01:00:23;;;;;;;;;;;;;;;22.39;45.29;96740.34;1048902;28;1565;-57
2021/09/22 01:00:53;;;;;;;;;;;;;;;22.39;45.48;96742.19;1048802;28;1018;-55
2021/09/22 01:01:23;;;;;;;;;;;;;;;22.39;45.34;96740.34;1048088;28;2230;-55
2021/09/22 01:01:54;;;;;;;;;;;;;;;22.39;45.20;96742.19;1049366;28;1173;-54
2021/09/22 01:02:24;;;;;;;;;;;;;;;22.38;45.28;96736.09;1048223;28;1499;-54
2021/09/22 01:02:55;;;;;;;;;;;;;;;22.39;44.86;96743.00;1047849;28;1158;-57
2021/09/22 01:03:25;;;;;;;;;;;;;;;22.38;45.61;96738.75;1049084;28;1310;-55
2021/09/22 01:03:56;;;;;;;;;;;;;;;22.39;45.03;96744.84;1049316;28;1063;-56
2021/09/22 01:04:27;;;;;;;;;;;;;;;22.38;45.30;96746.69;1049188;28;1146;-57
2021/09/22 01:04:58;;;;;;;;;;;;;;;22.38;45.22;96740.63;1049028;28;1247;-54
2021/09/22 01:05:28;;;;;;;;;;;;;;;22.39;45.55;96743.00;1049387;28;1265;-57
2021/09/22 01:06:00;;;;;;;;;;;;;;;22.38;45.36;96736.09;1048838;28;1201;-56
2021/09/22 01:06:30;;;;;;;;;;;;;;;22.38;45.33;96740.63;1047702;28;2137;-56
2021/09/22 01:07:02;;;;;;;;;;;;;;;22.38;45.49;96736.09;1048688;28;1501;-58
2021/09/22 01:07:33;;;;;;;;;;;;;;;22.38;45.46;96736.09;1047809;28;2480;-56
2021/09/22 01:08:05;;;;;;;;;;;;;;;22.38;45.49;96733.47;1056242;28;1513;-57
2021/09/22 01:08:47;;;;;;;;;;;;;;;22.36;44.92;96735.56;1057488;28;1044;-58
2021/09/22 01:09:17;;;;;;;;;;;;;;;22.38;45.23;96738.75;1048708;28;1238;-55
2021/09/22 01:09:51;;;;;;;;;;;;;;;22.36;45.12;96738.22;1037443;28;1681;-57
2021/09/22 01:10:23;;;;;;;;;;;;;;;22.37;45.42;96736.38;1040595;28;1176;-56
2021/09/22 01:11:11;;;;;;;;;;;;;;;22.36;45.10;96743.50;1042318;28;1206;-58
2021/09/22 01:11:42;;;;;;;;;;;;;;;22.36;45.36;96746.16;1049578;28;2108;-54
2021/09/22 01:12:12;;;;;;;;;;;;;;;22.36;45.07;96740.88;1046296;28;1617;-56
2021/09/22 01:13:03;;;;;;;;;;;;;;;22.36;45.50;96743.50;1047309;28;1085;-57
2021/09/22 01:13:53;;;;;;;;;;;;;;;22.35;45.31;96736.66;1047671;28;2062;-57
2021/09/22 01:14:26;;;;;;;;;;;;;;;22.36;45.46;96738.22;1048302;28;1726;-58
2021/09/22 01:15:00;;;;;;;;;;;;;;;22.35;45.21;96741.13;1044684;28;1234;-56
2021/09/22 01:15:38;;;;;;;;;;;;;;;22.34;45.50;96737.69;1044542;28;1240;-54
2021/09/22 01:16:09;;;;;;;;;;;;;;;22.35;45.29;96741.94;1048775;28;1366;-58
2021/09/22 01:16:40;;;;;;;;;;;;;;;22.35;45.23;96739.28;1049386;28;2488;-58
2021/09/22 01:17:11;;;;;;;;;;;;;;;22.35;45.00;96735.84;1049240;28;1135;-57
2021/09/22 01:17:42;;;;;;;;;;;;;;;22.35;45.45;96738.50;1049049;28;1453;-55
2021/09/22 01:18:17;;;;;;;;;;;;;;;22.35;45.28;96743.78;1048738;28;2383;-54
2021/09/22 01:18:55;;;;;;;;;;;;;;;22.34;45.45;96739.56;1046630;28;1163;-57
2021/09/22 01:19:41;;;;;;;;;;;;;;;22.34;45.30;96740.31;1043698;28;1174;-56
2021/09/22 01:20:29;;;;;;;;;;;;;;;22.34;45.32;96737.69;1044773;28;1391;-56
2021/09/22 01:21:01;;;;;;;;;;;;;;;22.34;45.14;96739.56;1044664;28;1588;-58
2021/09/22 01:21:32;;;;;;;;;;;;;;;22.34;45.54;96739.56;1038743;28;2152;-55
2021/09/22 01:22:02;;;;;;;;;;;;;;;22.33;45.10;96738.75;1040023;28;1578;-54
2021/09/22 01:22:33;;;;;;;;;;;;;;;22.33;45.33;96743.25;1044650;28;1087;-56
2021/09/22 01:23:04;;;;;;;;;;;;;;;22.33;45.37;96735.31;1048854;28;1084;-57
2021/09/22 01:23:48;;;;;;;;;;;;;;;22.33;44.96;96733.47;1054340;28;2428;-55
2021/09/22 01:24:38;;;;;;;;;;;;;;;22.33;45.11;96738.75;1050609;28;1024;-56
2021/09/22 01:25:28;;;;;;;;;;;;;;;22.33;45.17;96725.56;1051854;28;1279;-57
2021/09/22 01:26:18;;;;;;;;;;;;;;;22.32;45.04;96726.59;1047941;28;1040;-56
2021/09/22 01:27:05;;;;;;;;;;;;;;;22.33;45.07;96730.84;1048363;28;1525;-57
2021/09/22 01:27:44;;;;;;;;;;;;;;;22.32;45.04;96723.94;1048200;28;941;-55
2021/09/22 01:28:16;;;;;;;;;;;;;;;22.32;44.76;96731.88;1048747;28;1087;-58
2021/09/22 01:28:47;;;;;;;;;;;;;;;22.32;45.12;96731.88;1047836;28;2193;-55
2021/09/22 01:29:17;;;;;;;;;;;;;;;22.31;45.38;96725.03;1048843;28;1028;-54
2021/09/22 01:29:47;;;;;;;;;;;;;;;22.32;45.66;96733.72;1048799;28;1184;-57
2021/09/22 01:30:18;;;;;;;;;;;;;;;22.32;45.37;96742.44;1048808;28;1632;-58
2021/09/22 01:30:48;;;;;;;;;;;;;;;22.31;45.24;96735.59;1049119;28;1115;-54
2021/09/22 01:31:18;;;;;;;;;;;;;;;22.31;45.30;96730.31;1049356;28;1177;-57
2021/09/22 01:31:49;;;;;;;;;;;;;;;22.32;45.02;96737.16;1049268;28;1107;-57
2021/09/22 01:32:19;;;;;;;;;;;;;;;22.33;45.05;96732.66;1048369;28;1590;-57
2021/09/22 01:32:50;;;;;;;;;;;;;;;22.32;45.10;96731.06;1047437;28;1077;-56
2021/09/22 01:33:21;;;;;;;;;;;;;;;22.32;45.15;96737.16;1049233;28;1467;-57
2021/09/22 01:33:52;;;;;;;;;;;;;;;22.31;45.52;96730.31;1054382;28;2040;-57
2021/09/22 01:34:22;;;;;;;;;;;;;;;22.32;44.84;96728.44;1053921;28;2424;-55
2021/09/22 01:34:52;;;;;;;;;;;;;;;22.31;45.33;96727.66;1057412;28;1150;-57
2021/09/22 01:35:23;;;;;;;;;;;;;;;22.32;44.91;96729.22;1057022;28;1198;-57
2021/09/22 01:35:53;;;;;;;;;;;;;;;22.30;45.17;96726.06;1049028;28;1312;-58
2021/09/22 01:36:24;;;;;;;;;;;;;;;22.31;45.32;96732.13;1048076;28;1275;-57
2021/09/22 01:36:54;;;;;;;;;;;;;;;22.31;45.21;96726.84;1049227;28;1135;-54
2021/09/22 01:37:24;;;;;;;;;;;;;;;22.31;45.45;96735.59;1049224;28;1162;-58
2021/09/22 01:37:55;;;;;;;;;;;;;;;22.31;45.17;96727.66;1048966;28;1977;-58
2021/09/22 01:38:26;;;;;;;;;;;;;;;22.30;44.92;96733.97;1048427;28;2181;-58
2021/09/22 01:38:56;;;;;;;;;;;;;;;22.30;45.20;96728.69;1046784;28;2124;-56
2021/09/22 01:39:26;;;;;;;;;;;;;;;22.30;45.04;96723.41;1057311;28;1773;-54
2021/09/22 01:39:57;;;;;;;;;;;;;;;22.29;44.89;96727.13;1057161;28;1112;-56
2021/09/22 01:40:27;;;;;;;;;;;;;;;22.29;45.27;96729.78;1056855;28;1173;-57
2021/09/22 01:41:06;;;;;;;;;;;;;;;22.29;45.11;96721.84;1057349;28;1079;-56
2021/09/22 01:41:37;;;;;;;;;;;;;;;22.29;45.28;96721.03;1049426;28;990;-56
2021/09/22 01:42:08;;;;;;;;;;;;;;;22.28;45.22;96709.69;1049600;28;1088;-57
2021/09/22 01:42:38;;;;;;;;;;;;;;;22.29;45.20;96716.56;1051629;28;1204;-56
2021/09/22 01:43:09;;;;;;;;;;;;;;;22.29;44.90;96716.56;1049184;28;1152;-57
2021/09/22 01:43:39;;;;;;;;;;;;;;;22.28;45.44;96714.97;1045528;28;2176;-58
2021/09/22 01:44:09;;;;;;;;;;;;;;;22.29;45.18;96708.63;1048737;28;1376;-56
2021/09/22 01:44:39;;;;;;;;;;;;;;;22.30;45.25;96707.56;1048479;28;1005;-56
2021/09/22 01:45:11;;;;;;;;;;;;;;;22.28;45.12;96709.69;1048235;28;1344;-54
2021/09/22 01:45:41;;;;;;;;;;;;;;;22.27;44.91;96702.03;1044541;28;1280;-57
2021/09/22 01:46:11;;;;;;;;;;;;;;;22.29;45.03;96706.00;1044380;28;1377;-57
2021/09/22 01:46:42;;;;;;;;;;;;;;;22.27;45.51;96713.38;1052884;28;1355;-55
2021/09/22 01:47:12;;;;;;;;;;;;;;;22.28;45.07;96709.69;1053065;28;1178;-57
2021/09/22 01:47:42;;;;;;;;;;;;;;;22.28;45.32;96707.03;1056238;28;1029;-57
2021/09/22 01:48:13;;;;;;;;;;;;;;;22.27;45.42;96713.38;1057028;28;1133;-57
2021/09/22 01:48:43;;;;;;;;;;;;;;;22.28;44.98;96709.69;1047855;28;2685;-56
2021/09/22 01:49:23;;;;;;;;;;;;;;;22.28;45.21;96714.97;1049094;28;1073;-57
2021/09/22 01:49:58;;;;;;;;;;;;;;;22.28;44.94;96717.59;1048541;28;1455;-57
2021/09/22 01:50:29;;;;;;;;;;;;;;;22.28;44.79;96716.81;1048788;28;1036;-53
2021/09/22 01:51:00;;;;;;;;;;;;;;;22.28;44.94;96716.81;1048581;28;1092;-57
2021/09/22 01:51:30;;;;;;;;;;;;;;;22.28;44.73;96720.25;1044489;28;1707;-55
2021/09/22 01:52:01;;;;;;;;;;;;;;;22.27;45.42;96720.50;1048641;28;1084;-56
2021/09/22 01:52:32;;;;;;;;;;;;;;;22.27;45.40;96716.03;1048738;28;1026;-57
2021/09/22 01:53:03;;;;;;;;;;;;;;;22.27;45.25;96716.03;1048319;28;1197;-57
2021/09/22 01:53:33;;;;;;;;;;;;;;;22.27;44.82;96723.16;1049268;28;1090;-55
2021/09/22 01:54:03;;;;;;;;;;;;;;;22.26;45.16;96714.44;1054894;28;2165;-57
2021/09/22 01:54:34;;;;;;;;;;;;;;;22.25;45.15;96712.84;1057153;28;773;-57
2021/09/22 01:55:05;;;;;;;;;;;;;;;22.26;45.11;96713.63;1056665;28;1179;-54
2021/09/22 01:55:35;;;;;;;;;;;;;;;22.25;44.92;96704.94;1057094;28;1284;-54
2021/09/22 01:56:05;;;;;;;;;;;;;;;22.25;44.71;96698.84;1049146;28;1068;-57
2021/09/22 01:56:36;;;;;;;;;;;;;;;22.26;45.22;96698.59;1048921;28;1590;-57
2021/09/22 01:57:09;;;;;;;;;;;;;;;22.25;45.30;96697.00;1048894;28;1138;-54
2021/09/22 01:57:39;;;;;;;;;;;;;;;22.25;45.00;96697.00;1049071;28;942;-56
2021/09/22 01:58:09;;;;;;;;;;;;;;;22.25;44.74;96694.38;1048718;28;1906;-54
2021/09/22 01:58:39;;;;;;;;;;;;;;;22.24;45.10;96698.06;1049103;28;1448;-55
2021/09/22 01:59:10;;;;;;;;;;;;;;;22.24;45.15;96698.06;1047427;28;2076;-57
2021/09/22 01:59:40;;;;;;;;;;;;;;;22.24;45.21;96703.34;1049220;28;1020;-57
2021/09/22 02:00:11;;;;;;;;;;;;;;;22.24;45.08;96703.34;1049079;28;1073;-57
2021/09/22 02:00:41;;;;;;;;;;;;;;;22.23;44.99;96709.69;1045185;28;1627;-56
2021/09/22 02:01:14;;;;;;;;;;;;;;;22.24;45.27;96713.09;1048965;28;1170;-56
2021/09/22 02:01:45;;;;;;;;;;;;;;;22.24;44.82;96713.91;1047168;28;2115;-56
2021/09/22 02:02:15;;;;;;;;;;;;;;;22.25;44.88;96704.13;1048762;28;1194;-58
2021/09/22 02:02:46;;;;;;;;;;;;;;;22.24;44.91;96713.09;1046004;28;1744;-57
2021/09/22 02:03:16;;;;;;;;;;;;;;;22.24;45.41;96713.91;1048190;28;1273;-57
2021/09/22 02:03:47;;;;;;;;;;;;;;;22.25;45.08;96704.13;1048188;28;2105;-58
2021/09/22 02:04:18;;;;;;;;;;;;;;;22.26;45.00;96711.00;1048720;28;1539;-56
2021/09/22 02:04:48;;;;;;;;;;;;;;;22.24;44.99;96711.25;1048925;28;1040;-54
2021/09/22 02:05:18;;;;;;;;;;;;;;;22.25;44.89;96715.50;1046675;28;2078;-56
2021/09/22 02:05:49;;;;;;;;;;;;;;;22.25;44.94;96712.06;1046045;28;1209;-55
2021/09/22 02:06:19;;;;;;;;;;;;;;;22.25;44.80;96712.06;1049096;28;1229;-56
2021/09/22 02:06:49;;;;;;;;;;;;;;;22.24;45.09;96718.38;1049175;28;1071;-56
2021/09/22 02:07:19;;;;;;;;;;;;;;;22.24;45.03;96721.03;1048947;28;1303;-54
2021/09/22 02:07:50;;;;;;;;;;;;;;;22.23;44.80;96719.44;1048666;28;1047;-57
2021/09/22 02:08:20;;;;;;;;;;;;;;;22.22;44.94;96721.28;1049104;28;1153;-56
2021/09/22 02:08:51;;;;;;;;;;;;;;;22.23;44.75;96722.88;1047815;28;2036;-57
2021/09/22 02:09:21;;;;;;;;;;;;;;;22.23;45.13;96724.72;1049063;28;1146;-57
2021/09/22 02:09:51;;;;;;;;;;;;;;;22.23;45.02;96722.09;1046946;28;1625;-56
2021/09/22 02:10:22;;;;;;;;;;;;;;;22.22;44.71;96723.13;1049177;28;1200;-55
2021/09/22 02:10:52;;;;;;;;;;;;;;;22.23;45.14;96730.00;1049130;28;1158;-57
2021/09/22 02:11:22;;;;;;;;;;;;;;;22.23;45.09;96728.16;1057078;28;1485;-57
2021/09/22 02:11:53;;;;;;;;;;;;;;;22.23;44.87;96728.16;1050462;28;1605;-57
2021/09/22 02:12:23;;;;;;;;;;;;;;;22.22;45.13;96729.22;1052651;28;1411;-57
2021/09/22 02:12:53;;;;;;;;;;;;;;;22.23;45.22;96730.81;1052630;28;1170;-57
2021/09/22 02:13:24;;;;;;;;;;;;;;;22.22;45.03;96731.84;1048729;28;1170;-56
2021/09/22 02:13:54;;;;;;;;;;;;;;;22.22;44.71;96731.84;1047518;28;2185;-57
2021/09/22 02:14:24;;;;;;;;;;;;;;;22.22;44.85;96729.22;1048763;28;1166;-56
2021/09/22 02:14:55;;;;;;;;;;;;;;;22.21;44.89;96730.28;1048966;28;1200;-57
2021/09/22 02:15:25;;;;;;;;;;;;;;;22.22;44.96;96733.69;1049295;28;1185;-57
2021/09/22 02:15:56;;;;;;;;;;;;;;;22.22;44.68;96726.56;1048570;28;1343;-55
2021/09/22 02:16:26;;;;;;;;;;;;;;;22.23;44.79;96732.66;1049127;28;1228;-56
2021/09/22 02:16:56;;;;;;;;;;;;;;;22.22;44.88;96733.69;1049200;28;1024;-56
2021/09/22 02:17:26;;;;;;;;;;;;;;;22.20;44.82;96733.97;1048896;28;1233;-57
2021/09/22 02:17:57;;;;;;;;;;;;;;;22.21;44.82;96735.56;1047403;28;1964;-56
2021/09/22 02:18:27;;;;;;;;;;;;;;;22.20;44.94;96733.16;1049162;28;1165;-55
2021/09/22 02:18:57;;;;;;;;;;;;;;;22.20;45.00;96733.97;1047427;28;2036;-57
2021/09/22 02:19:28;;;;;;;;;;;;;;;22.20;44.91;96733.97;1048431;28;1543;-57
2021/09/22 02:19:59;;;;;;;;;;;;;;;22.19;45.05;96735.03;1047618;28;1181;-56
2021/09/22 02:20:29;;;;;;;;;;;;;;;22.19;45.13;96732.38;1049124;28;1127;-58
2021/09/22 02:21:00;;;;;;;;;;;;;;;22.19;44.92;96735.03;1048524;28;1279;-57
2021/09/22 02:21:30;;;;;;;;;;;;;;;22.19;45.26;96734.22;1048975;28;1006;-57
2021/09/22 02:22:00;;;;;;;;;;;;;;;22.18;45.14;96736.06;1048429;28;1107;-55
2021/09/22 02:22:31;;;;;;;;;;;;;;;22.19;45.32;96734.22;1048602;28;1225;-58
2021/09/22 02:23:01;;;;;;;;;;;;;;;22.19;45.13;96734.22;1048680;28;1064;-54
2021/09/22 02:23:31;;;;;;;;;;;;;;;22.19;44.88;96724.47;1047656;28;2479;-56
2021/09/22 02:24:02;;;;;;;;;;;;;;;22.19;44.67;96727.09;1047250;28;2210;-54
2021/09/22 02:24:32;;;;;;;;;;;;;;;22.20;45.26;96731.31;1048748;28;1107;-56
2021/09/22 02:25:03;;;;;;;;;;;;;;;22.20;44.88;96723.41;1048618;28;1276;-57
2021/09/22 02:25:33;;;;;;;;;;;;;;;22.20;45.04;96727.88;1048640;28;1652;-57
2021/09/22 02:26:04;;;;;;;;;;;;;;;22.20;44.77;96730.50;1052752;28;2592;-57
2021/09/22 02:26:35;;;;;;;;;;;;;;;22.20;45.07;96731.31;1052859;28;1045;-57
2021/09/22 02:27:05;;;;;;;;;;;;;;;22.19;44.64;96732.38;1052906;28;1120;-57
2021/09/22 02:27:35;;;;;;;;;;;;;;;22.20;45.08;96733.16;1056642;28;1201;-57
2021/09/22 02:28:06;;;;;;;;;;;;;;;22.20;44.79;96733.97;1048481;28;1360;-54
2021/09/22 02:28:36;;;;;;;;;;;;;;;22.19;44.92;96735.03;1045209;28;1006;-59
2021/09/22 02:29:06;;;;;;;;;;;;;;;22.19;44.95;96739.50;1046972;28;2138;-57
2021/09/22 02:29:37;;;;;;;;;;;;;;;22.19;45.08;96736.88;1049202;28;990;-58
2021/09/22 02:30:08;;;;;;;;;;;;;;;22.18;45.04;96741.34;1048669;28;1208;-56
2021/09/22 02:30:39;;;;;;;;;;;;;;;22.17;45.33;96734.50;1048366;28;1153;-58
2021/09/22 02:31:09;;;;;;;;;;;;;;;22.17;45.20;96739.78;1048643;28;1072;-57
2021/09/22 02:31:39;;;;;;;;;;;;;;;22.17;44.84;96734.50;1048515;28;1450;-57
2021/09/22 02:32:10;;;;;;;;;;;;;;;22.17;45.03;96731.84;1047535;28;2140;-57
2021/09/22 02:32:40;;;;;;;;;;;;;;;22.17;45.19;96734.50;1044803;28;1524;-55
2021/09/22 02:33:11;;;;;;;;;;;;;;;22.18;44.67;96736.06;1048854;28;1470;-55
2021/09/22 02:33:41;;;;;;;;;;;;;;;22.18;44.76;96736.06;1049174;28;1201;-55
2021/09/22 02:34:11;;;;;;;;;;;;;;;22.17;44.96;96734.50;1047348;28;2213;-58
2021/09/22 02:34:42;;;;;;;;;;;;;;;22.17;44.95;96738.97;1048737;28;1071;-58
2021/09/22 02:35:12;;;;;;;;;;;;;;;22.17;44.77;96739.78;1048812;28;1366;-56
2021/09/22 02:35:42;;;;;;;;;;;;;;;22.16;44.48;96732.88;1048814;28;1331;-58
2021/09/22 02:36:13;;;;;;;;;;;;;;;22.17;44.65;96734.50;1049096;28;1071;-55
2021/09/22 02:36:43;;;;;;;;;;;;;;;22.17;44.86;96745.06;1048750;28;1345;-58
2021/09/22 02:37:14;;;;;;;;;;;;;;;22.16;44.82;96743.44;1048946;28;1150;-56
2021/09/22 02:37:44;;;;;;;;;;;;;;;22.16;44.97;96742.66;1048832;28;1119;-56
2021/09/22 02:38:14;;;;;;;;;;;;;;;22.16;44.70;96742.66;1049025;28;2098;-58
2021/09/22 02:38:45;;;;;;;;;;;;;;;22.17;45.11;96738.97;1048706;28;1048;-58
2021/09/22 02:39:15;;;;;;;;;;;;;;;22.16;44.78;96740.00;1047614;28;2152;-58
2021/09/22 02:39:45;;;;;;;;;;;;;;;22.16;44.64;96738.16;1048990;28;1049;-58
2021/09/22 02:40:16;;;;;;;;;;;;;;;22.16;44.84;96735.53;1048967;28;1525;-58
2021/09/22 02:40:46;;;;;;;;;;;;;;;22.17;45.05;96739.78;1048686;28;1016;-57
2021/09/22 02:41:17;;;;;;;;;;;;;;;22.18;45.05;96738.72;1049038;28;1142;-56
2021/09/22 02:41:47;;;;;;;;;;;;;;;22.16;45.02;96737.38;1046104;28;1584;-56
2021/09/22 02:42:18;;;;;;;;;;;;;;;22.16;44.99;96737.38;1048888;28;1395;-54
2021/09/22 02:42:48;;;;;;;;;;;;;;;22.17;44.76;96738.97;1048164;28;1080;-56
2021/09/22 02:43:18;;;;;;;;;;;;;;;22.17;44.85;96737.13;1048502;28;1170;-58
2021/09/22 02:43:49;;;;;;;;;;;;;;;22.16;45.04;96743.44;1048515;28;1028;-58
2021/09/22 02:44:19;;;;;;;;;;;;;;;22.16;45.05;96740.00;1047363;28;1933;-58
2021/09/22 02:44:50;;;;;;;;;;;;;;;22.15;44.91;96739.25;1048555;28;1406;-58
2021/09/22 02:45:20;;;;;;;;;;;;;;;22.15;45.20;96736.59;1048402;28;1351;-58